sensor_id;sensor_type;location;lat;lon;timestamp;P1;durP1;ratioP1;P2;durP2;ratioP2
80725;SDS011;70113;59.928;10.878;2023-10-08T00:01:55;0.90;;;0.40;;
80725;SDS011;70113;59.928;10.878;2023-10-08T00:04:21;1.73;;;0.50;;
80725;SDS011;70113;59.928;10.878;2023-10-08T00:06:47;2.35;;;0.82;;
80725;SDS011;70113;59.928;10.878;2023-10-08T00:09:13;1.80;;;0.60;;
80725;SDS011;70113;59.928;10.878;2023-10-08T00:11:41;3.75;;;0.40;;
80725;SDS011;70113;59.928;10.878;2023-10-08T00:14:07;1.75;;;0.57;;
80725;SDS011;70113;59.928;10.878;2023-10-08T00:16:36;1.27;;;0.57;;
80725;SDS011;70113;59.928;10.878;2023-10-08T00:19:06;3.40;;;0.85;;
80725;SDS011;70113;59.928;10.878;2023-10-08T00:21:38;1.73;;;0.50;;
80725;SDS011;70113;59.928;10.878;2023-10-08T00:24:05;5.80;;;0.60;;
80725;SDS011;70113;59.928;10.878;2023-10-08T00:26:32;1.92;;;0.60;;
80725;SDS011;70113;59.928;10.878;2023-10-08T00:29:04;1.65;;;0.50;;
80725;SDS011;70113;59.928;10.878;2023-10-08T00:31:44;1.92;;;0.57;;
80725;SDS011;70113;59.928;10.878;2023-10-08T00:34:11;2.90;;;0.80;;
80725;SDS011;70113;59.928;10.878;2023-10-08T00:36:42;2.20;;;0.63;;
80725;SDS011;70113;59.928;10.878;2023-10-08T00:39:09;1.95;;;0.57;;
80725;SDS011;70113;59.928;10.878;2023-10-08T00:41:40;1.05;;;0.35;;
80725;SDS011;70113;59.928;10.878;2023-10-08T00:44:10;0.80;;;0.32;;
80725;SDS011;70113;59.928;10.878;2023-10-08T00:46:44;1.02;;;0.40;;
80725;SDS011;70113;59.928;10.878;2023-10-08T00:49:13;1.92;;;0.40;;
80725;SDS011;70113;59.928;10.878;2023-10-08T00:51:56;1.70;;;0.77;;
80725;SDS011;70113;59.928;10.878;2023-10-08T00:54:33;4.60;;;0.45;;
80725;SDS011;70113;59.928;10.878;2023-10-08T00:57:11;0.70;;;0.30;;
80725;SDS011;70113;59.928;10.878;2023-10-08T00:59:45;2.05;;;0.40;;
80725;SDS011;70113;59.928;10.878;2023-10-08T01:02:19;1.73;;;0.40;;
80725;SDS011;70113;59.928;10.878;2023-10-08T01:04:49;2.17;;;0.50;;
80725;SDS011;70113;59.928;10.878;2023-10-08T01:07:16;1.58;;;0.43;;
80725;SDS011;70113;59.928;10.878;2023-10-08T01:09:44;1.90;;;0.40;;
80725;SDS011;70113;59.928;10.878;2023-10-08T01:12:16;0.77;;;0.30;;
80725;SDS011;70113;59.928;10.878;2023-10-08T01:14:46;1.02;;;0.40;;
80725;SDS011;70113;59.928;10.878;2023-10-08T01:17:14;2.42;;;0.60;;
80725;SDS011;70113;59.928;10.878;2023-10-08T01:19:47;0.80;;;0.30;;
80725;SDS011;70113;59.928;10.878;2023-10-08T01:22:20;2.20;;;0.98;;
80725;SDS011;70113;59.928;10.878;2023-10-08T01:24:47;1.48;;;0.47;;
80725;SDS011;70113;59.928;10.878;2023-10-08T01:27:18;2.05;;;0.40;;
80725;SDS011;70113;59.928;10.878;2023-10-08T01:29:47;1.90;;;0.47;;
80725;SDS011;70113;59.928;10.878;2023-10-08T01:32:19;1.98;;;0.52;;
80725;SDS011;70113;59.928;10.878;2023-10-08T01:34:46;1.08;;;0.30;;
80725;SDS011;70113;59.928;10.878;2023-10-08T01:37:13;2.35;;;0.40;;
80725;SDS011;70113;59.928;10.878;2023-10-08T01:39:42;2.08;;;0.60;;
80725;SDS011;70113;59.928;10.878;2023-10-08T01:42:12;0.88;;;0.30;;
80725;SDS011;70113;59.928;10.878;2023-10-08T01:44:58;0.60;;;0.40;;
80725;SDS011;70113;59.928;10.878;2023-10-08T01:47:24;0.98;;;0.52;;
80725;SDS011;70113;59.928;10.878;2023-10-08T01:49:51;1.00;;;0.38;;
80725;SDS011;70113;59.928;10.878;2023-10-08T01:52:23;1.23;;;0.47;;
80725;SDS011;70113;59.928;10.878;2023-10-08T01:54:49;1.02;;;0.28;;
80725;SDS011;70113;59.928;10.878;2023-10-08T01:57:15;1.95;;;0.30;;
80725;SDS011;70113;59.928;10.878;2023-10-08T01:59:42;4.68;;;0.40;;
80725;SDS011;70113;59.928;10.878;2023-10-08T02:02:09;1.40;;;0.40;;
80725;SDS011;70113;59.928;10.878;2023-10-08T02:04:35;1.63;;;0.30;;
80725;SDS011;70113;59.928;10.878;2023-10-08T02:07:04;0.65;;;0.43;;
80725;SDS011;70113;59.928;10.878;2023-10-08T02:09:34;2.60;;;0.35;;
80725;SDS011;70113;59.928;10.878;2023-10-08T02:12:00;1.42;;;0.40;;
80725;SDS011;70113;59.928;10.878;2023-10-08T02:14:26;1.00;;;0.40;;
80725;SDS011;70113;59.928;10.878;2023-10-08T02:16:56;1.23;;;0.40;;
80725;SDS011;70113;59.928;10.878;2023-10-08T02:19:21;1.05;;;0.50;;
80725;SDS011;70113;59.928;10.878;2023-10-08T02:21:55;3.45;;;0.70;;
80725;SDS011;70113;59.928;10.878;2023-10-08T02:24:23;2.13;;;0.50;;
80725;SDS011;70113;59.928;10.878;2023-10-08T02:26:55;1.48;;;0.52;;
80725;SDS011;70113;59.928;10.878;2023-10-08T02:29:26;2.03;;;0.60;;
80725;SDS011;70113;59.928;10.878;2023-10-08T02:31:55;3.97;;;0.70;;
80725;SDS011;70113;59.928;10.878;2023-10-08T02:34:21;2.65;;;0.70;;
80725;SDS011;70113;59.928;10.878;2023-10-08T02:36:47;3.20;;;0.98;;
80725;SDS011;70113;59.928;10.878;2023-10-08T02:39:13;2.45;;;0.63;;
80725;SDS011;70113;59.928;10.878;2023-10-08T02:41:40;2.13;;;1.00;;
80725;SDS011;70113;59.928;10.878;2023-10-08T02:44:12;2.60;;;0.65;;
80725;SDS011;70113;59.928;10.878;2023-10-08T02:46:43;1.80;;;0.60;;
80725;SDS011;70113;59.928;10.878;2023-10-08T02:49:15;1.27;;;0.40;;
80725;SDS011;70113;59.928;10.878;2023-10-08T02:51:54;2.17;;;0.50;;
80725;SDS011;70113;59.928;10.878;2023-10-08T02:54:20;3.13;;;0.50;;
80725;SDS011;70113;59.928;10.878;2023-10-08T02:56:51;2.85;;;0.70;;
80725;SDS011;70113;59.928;10.878;2023-10-08T02:59:20;2.53;;;0.68;;
80725;SDS011;70113;59.928;10.878;2023-10-08T03:01:50;1.13;;;0.32;;
80725;SDS011;70113;59.928;10.878;2023-10-08T03:13:51;1.48;;;0.40;;
80725;SDS011;70113;59.928;10.878;2023-10-08T03:16:18;1.55;;;0.30;;
80725;SDS011;70113;59.928;10.878;2023-10-08T03:18:52;2.22;;;0.57;;
80725;SDS011;70113;59.928;10.878;2023-10-08T03:21:20;1.08;;;0.40;;
80725;SDS011;70113;59.928;10.878;2023-10-08T03:23:46;1.08;;;0.30;;
80725;SDS011;70113;59.928;10.878;2023-10-08T03:26:23;0.90;;;0.30;;
80725;SDS011;70113;59.928;10.878;2023-10-08T03:28:58;2.00;;;0.47;;
80725;SDS011;70113;59.928;10.878;2023-10-08T03:31:25;1.45;;;0.40;;
80725;SDS011;70113;59.928;10.878;2023-10-08T03:34:29;1.13;;;0.40;;
80725;SDS011;70113;59.928;10.878;2023-10-08T03:36:59;2.53;;;0.60;;
80725;SDS011;70113;59.928;10.878;2023-10-08T03:39:31;1.05;;;0.50;;
80725;SDS011;70113;59.928;10.878;2023-10-08T03:42:19;2.67;;;0.70;;
80725;SDS011;70113;59.928;10.878;2023-10-08T03:44:51;2.65;;;0.93;;
80725;SDS011;70113;59.928;10.878;2023-10-08T03:47:20;3.72;;;0.60;;
80725;SDS011;70113;59.928;10.878;2023-10-08T03:49:54;2.67;;;0.60;;
80725;SDS011;70113;59.928;10.878;2023-10-08T03:52:20;2.35;;;0.50;;
80725;SDS011;70113;59.928;10.878;2023-10-08T03:54:49;1.60;;;0.50;;
80725;SDS011;70113;59.928;10.878;2023-10-08T03:57:29;2.10;;;0.50;;
80725;SDS011;70113;59.928;10.878;2023-10-08T04:00:12;2.10;;;0.70;;
80725;SDS011;70113;59.928;10.878;2023-10-08T04:02:53;1.40;;;0.40;;
80725;SDS011;70113;59.928;10.878;2023-10-08T04:05:29;1.90;;;0.50;;
80725;SDS011;70113;59.928;10.878;2023-10-08T04:08:09;1.58;;;0.65;;
80725;SDS011;70113;59.928;10.878;2023-10-08T04:10:59;3.65;;;0.68;;
80725;SDS011;70113;59.928;10.878;2023-10-08T04:13:33;0.65;;;0.20;;
80725;SDS011;70113;59.928;10.878;2023-10-08T04:16:04;0.93;;;0.20;;
80725;SDS011;70113;59.928;10.878;2023-10-08T04:18:31;1.20;;;0.30;;
80725;SDS011;70113;59.928;10.878;2023-10-08T04:20:58;2.05;;;0.40;;
80725;SDS011;70113;59.928;10.878;2023-10-08T04:23:30;1.95;;;0.25;;
80725;SDS011;70113;59.928;10.878;2023-10-08T04:25:56;1.25;;;0.60;;
80725;SDS011;70113;59.928;10.878;2023-10-08T04:28:22;1.20;;;0.35;;
80725;SDS011;70113;59.928;10.878;2023-10-08T04:30:54;2.63;;;0.35;;
80725;SDS011;70113;59.928;10.878;2023-10-08T04:35:51;0.55;;;0.20;;
80725;SDS011;70113;59.928;10.878;2023-10-08T04:38:21;0.75;;;0.30;;
80725;SDS011;70113;59.928;10.878;2023-10-08T04:40:51;0.70;;;0.20;;
80725;SDS011;70113;59.928;10.878;2023-10-08T04:43:18;1.20;;;0.30;;
80725;SDS011;70113;59.928;10.878;2023-10-08T04:45:51;1.20;;;0.20;;
80725;SDS011;70113;59.928;10.878;2023-10-08T04:48:17;1.83;;;0.50;;
80725;SDS011;70113;59.928;10.878;2023-10-08T04:50:47;1.45;;;0.30;;
80725;SDS011;70113;59.928;10.878;2023-10-08T04:53:24;1.67;;;0.32;;
80725;SDS011;70113;59.928;10.878;2023-10-08T04:56:00;1.50;;;0.25;;
80725;SDS011;70113;59.928;10.878;2023-10-08T04:58:30;0.93;;;0.30;;
80725;SDS011;70113;59.928;10.878;2023-10-08T05:00:59;0.98;;;0.50;;
80725;SDS011;70113;59.928;10.878;2023-10-08T05:03:43;0.85;;;0.25;;
80725;SDS011;70113;59.928;10.878;2023-10-08T05:06:25;0.63;;;0.30;;
80725;SDS011;70113;59.928;10.878;2023-10-08T05:09:01;1.00;;;0.30;;
80725;SDS011;70113;59.928;10.878;2023-10-08T05:11:49;0.52;;;0.20;;
80725;SDS011;70113;59.928;10.878;2023-10-08T05:14:16;1.85;;;0.40;;
80725;SDS011;70113;59.928;10.878;2023-10-08T05:16:57;1.10;;;0.30;;
80725;SDS011;70113;59.928;10.878;2023-10-08T05:19:38;0.32;;;0.20;;
80725;SDS011;70113;59.928;10.878;2023-10-08T05:22:14;1.92;;;0.30;;
80725;SDS011;70113;59.928;10.878;2023-10-08T05:24:55;0.32;;;0.20;;
80725;SDS011;70113;59.928;10.878;2023-10-08T05:27:41;1.00;;;0.20;;
80725;SDS011;70113;59.928;10.878;2023-10-08T05:30:14;1.02;;;0.30;;
80725;SDS011;70113;59.928;10.878;2023-10-08T05:32:42;1.13;;;0.30;;
80725;SDS011;70113;59.928;10.878;2023-10-08T05:35:38;1.35;;;0.30;;
80725;SDS011;70113;59.928;10.878;2023-10-08T05:38:08;2.00;;;0.30;;
80725;SDS011;70113;59.928;10.878;2023-10-08T05:40:54;1.60;;;0.30;;
80725;SDS011;70113;59.928;10.878;2023-10-08T05:43:32;0.57;;;0.30;;
80725;SDS011;70113;59.928;10.878;2023-10-08T05:48:52;0.22;;;0.20;;
80725;SDS011;70113;59.928;10.878;2023-10-08T05:51:41;1.08;;;0.20;;
80725;SDS011;70113;59.928;10.878;2023-10-08T05:54:21;0.55;;;0.20;;
80725;SDS011;70113;59.928;10.878;2023-10-08T05:59:38;13.73;;;4.22;;
80725;SDS011;70113;59.928;10.878;2023-10-08T06:05:02;111.80;;;34.83;;
80725;SDS011;70113;59.928;10.878;2023-10-08T06:07:58;142.88;;;39.15;;
80725;SDS011;70113;59.928;10.878;2023-10-08T06:10:36;109.82;;;32.15;;
80725;SDS011;70113;59.928;10.878;2023-10-08T06:13:05;72.95;;;21.88;;
80725;SDS011;70113;59.928;10.878;2023-10-08T06:15:40;74.50;;;20.80;;
80725;SDS011;70113;59.928;10.878;2023-10-08T06:18:15;44.42;;;13.18;;
80725;SDS011;70113;59.928;10.878;2023-10-08T06:20:45;34.13;;;10.90;;
80725;SDS011;70113;59.928;10.878;2023-10-08T06:23:11;26.52;;;7.97;;
80725;SDS011;70113;59.928;10.878;2023-10-08T06:25:41;56.53;;;16.30;;
80725;SDS011;70113;59.928;10.878;2023-10-08T06:28:19;41.63;;;12.18;;
80725;SDS011;70113;59.928;10.878;2023-10-08T06:30:46;51.67;;;16.45;;
80725;SDS011;70113;59.928;10.878;2023-10-08T06:33:13;86.07;;;27.23;;
80725;SDS011;70113;59.928;10.878;2023-10-08T06:56:57;173.32;;;54.28;;
80725;SDS011;70113;59.928;10.878;2023-10-08T06:59:23;135.13;;;47.67;;
80725;SDS011;70113;59.928;10.878;2023-10-08T07:01:49;180.35;;;52.80;;
80725;SDS011;70113;59.928;10.878;2023-10-08T07:04:17;247.48;;;68.90;;
80725;SDS011;70113;59.928;10.878;2023-10-08T07:06:44;162.82;;;49.42;;
80725;SDS011;70113;59.928;10.878;2023-10-08T07:09:12;141.65;;;42.38;;
80725;SDS011;70113;59.928;10.878;2023-10-08T07:11:49;97.88;;;29.55;;
80725;SDS011;70113;59.928;10.878;2023-10-08T07:14:21;67.13;;;20.05;;
80725;SDS011;70113;59.928;10.878;2023-10-08T07:16:48;64.32;;;21.90;;
80725;SDS011;70113;59.928;10.878;2023-10-08T07:19:17;72.35;;;23.55;;
80725;SDS011;70113;59.928;10.878;2023-10-08T07:21:45;47.92;;;16.83;;
80725;SDS011;70113;59.928;10.878;2023-10-08T07:24:14;28.98;;;11.20;;
80725;SDS011;70113;59.928;10.878;2023-10-08T07:26:42;31.98;;;12.40;;
80725;SDS011;70113;59.928;10.878;2023-10-08T07:29:15;30.23;;;9.55;;
80725;SDS011;70113;59.928;10.878;2023-10-08T07:31:43;15.98;;;6.32;;
80725;SDS011;70113;59.928;10.878;2023-10-08T07:34:18;14.43;;;3.25;;
80725;SDS011;70113;59.928;10.878;2023-10-08T07:36:51;5.55;;;2.05;;
80725;SDS011;70113;59.928;10.878;2023-10-08T07:39:19;8.30;;;3.15;;
80725;SDS011;70113;59.928;10.878;2023-10-08T07:41:50;13.65;;;4.72;;
80725;SDS011;70113;59.928;10.878;2023-10-08T07:44:22;9.90;;;3.40;;
80725;SDS011;70113;59.928;10.878;2023-10-08T07:46:49;7.28;;;1.80;;
80725;SDS011;70113;59.928;10.878;2023-10-08T07:49:16;2.75;;;0.70;;
80725;SDS011;70113;59.928;10.878;2023-10-08T07:51:42;4.30;;;1.20;;
80725;SDS011;70113;59.928;10.878;2023-10-08T07:54:21;6.35;;;1.10;;
80725;SDS011;70113;59.928;10.878;2023-10-08T07:56:56;4.10;;;0.90;;
80725;SDS011;70113;59.928;10.878;2023-10-08T07:59:34;2.45;;;0.70;;
80725;SDS011;70113;59.928;10.878;2023-10-08T08:02:07;3.75;;;0.82;;
80725;SDS011;70113;59.928;10.878;2023-10-08T08:04:37;4.07;;;1.30;;
80725;SDS011;70113;59.928;10.878;2023-10-08T08:07:08;5.05;;;0.98;;
80725;SDS011;70113;59.928;10.878;2023-10-08T08:09:44;5.13;;;1.42;;
80725;SDS011;70113;59.928;10.878;2023-10-08T08:12:16;2.60;;;0.55;;
80725;SDS011;70113;59.928;10.878;2023-10-08T08:14:47;1.92;;;0.50;;
80725;SDS011;70113;59.928;10.878;2023-10-08T08:17:19;2.47;;;0.70;;
80725;SDS011;70113;59.928;10.878;2023-10-08T08:19:48;2.03;;;0.85;;
80725;SDS011;70113;59.928;10.878;2023-10-08T08:22:16;3.65;;;1.08;;
80725;SDS011;70113;59.928;10.878;2023-10-08T08:24:52;3.35;;;0.70;;
80725;SDS011;70113;59.928;10.878;2023-10-08T08:27:21;2.78;;;0.90;;
80725;SDS011;70113;59.928;10.878;2023-10-08T08:29:52;3.33;;;1.02;;
80725;SDS011;70113;59.928;10.878;2023-10-08T08:32:21;1.67;;;0.70;;
80725;SDS011;70113;59.928;10.878;2023-10-08T08:34:48;1.77;;;0.57;;
80725;SDS011;70113;59.928;10.878;2023-10-08T08:37:18;3.03;;;0.95;;
80725;SDS011;70113;59.928;10.878;2023-10-08T08:39:44;1.50;;;0.57;;
80725;SDS011;70113;59.928;10.878;2023-10-08T08:42:11;3.60;;;1.00;;
80725;SDS011;70113;59.928;10.878;2023-10-08T08:44:41;2.92;;;1.00;;
80725;SDS011;70113;59.928;10.878;2023-10-08T08:47:14;2.45;;;0.70;;
80725;SDS011;70113;59.928;10.878;2023-10-08T08:49:45;1.50;;;0.63;;
80725;SDS011;70113;59.928;10.878;2023-10-08T08:52:12;1.40;;;0.63;;
80725;SDS011;70113;59.928;10.878;2023-10-08T08:54:39;2.53;;;0.57;;
80725;SDS011;70113;59.928;10.878;2023-10-08T08:57:07;3.55;;;0.70;;
80725;SDS011;70113;59.928;10.878;2023-10-08T09:02:35;2.35;;;0.93;;
80725;SDS011;70113;59.928;10.878;2023-10-08T09:05:03;3.00;;;1.20;;
80725;SDS011;70113;59.928;10.878;2023-10-08T09:07:57;2.28;;;0.80;;
80725;SDS011;70113;59.928;10.878;2023-10-08T09:10:25;2.97;;;0.70;;
80725;SDS011;70113;59.928;10.878;2023-10-08T09:12:55;2.30;;;0.80;;
80725;SDS011;70113;59.928;10.878;2023-10-08T09:15:25;2.65;;;0.80;;
80725;SDS011;70113;59.928;10.878;2023-10-08T09:17:55;1.88;;;0.70;;
80725;SDS011;70113;59.928;10.878;2023-10-08T09:20:22;4.45;;;0.70;;
80725;SDS011;70113;59.928;10.878;2023-10-08T09:25:46;4.90;;;1.75;;
80725;SDS011;70113;59.928;10.878;2023-10-08T09:28:27;5.57;;;1.35;;
80725;SDS011;70113;59.928;10.878;2023-10-08T09:30:54;1.95;;;0.70;;
80725;SDS011;70113;59.928;10.878;2023-10-08T09:33:24;2.03;;;0.70;;
80725;SDS011;70113;59.928;10.878;2023-10-08T09:35:51;3.67;;;0.80;;
80725;SDS011;70113;59.928;10.878;2023-10-08T09:38:21;2.20;;;0.68;;
80725;SDS011;70113;59.928;10.878;2023-10-08T09:40:49;4.95;;;1.50;;
80725;SDS011;70113;59.928;10.878;2023-10-08T09:43:18;3.08;;;1.10;;
80725;SDS011;70113;59.928;10.878;2023-10-08T09:45:51;3.78;;;1.30;;
80725;SDS011;70113;59.928;10.878;2023-10-08T09:48:22;3.35;;;1.27;;
80725;SDS011;70113;59.928;10.878;2023-10-08T09:50:51;2.03;;;0.50;;
80725;SDS011;70113;59.928;10.878;2023-10-08T09:53:21;0.93;;;0.45;;
80725;SDS011;70113;59.928;10.878;2023-10-08T09:55:57;3.45;;;0.88;;
80725;SDS011;70113;59.928;10.878;2023-10-08T09:58:23;1.88;;;0.60;;
80725;SDS011;70113;59.928;10.878;2023-10-08T10:00:51;1.00;;;0.30;;
80725;SDS011;70113;59.928;10.878;2023-10-08T10:03:19;2.58;;;0.68;;
80725;SDS011;70113;59.928;10.878;2023-10-08T10:05:48;1.42;;;0.43;;
80725;SDS011;70113;59.928;10.878;2023-10-08T10:08:18;2.53;;;0.60;;
80725;SDS011;70113;59.928;10.878;2023-10-08T10:10:45;2.08;;;0.60;;
80725;SDS011;70113;59.928;10.878;2023-10-08T10:13:14;2.05;;;0.52;;
80725;SDS011;70113;59.928;10.878;2023-10-08T10:15:42;2.10;;;0.57;;
80725;SDS011;70113;59.928;10.878;2023-10-08T10:21:23;1.73;;;0.65;;
80725;SDS011;70113;59.928;10.878;2023-10-08T10:23:45;1.27;;;0.20;;
80725;SDS011;70113;59.928;10.878;2023-10-08T10:31:44;3.20;;;0.60;;
80725;SDS011;70113;59.928;10.878;2023-10-08T10:34:16;0.98;;;0.30;;
80725;SDS011;70113;59.928;10.878;2023-10-08T10:36:44;1.08;;;0.40;;
80725;SDS011;70113;59.928;10.878;2023-10-08T10:39:17;1.75;;;0.40;;
80725;SDS011;70113;59.928;10.878;2023-10-08T10:41:52;1.15;;;0.30;;
80725;SDS011;70113;59.928;10.878;2023-10-08T10:44:31;1.05;;;0.30;;
80725;SDS011;70113;59.928;10.878;2023-10-08T10:46:59;0.40;;;0.30;;
80725;SDS011;70113;59.928;10.878;2023-10-08T10:49:42;1.33;;;0.22;;
80725;SDS011;70113;59.928;10.878;2023-10-08T10:52:27;0.50;;;0.30;;
80725;SDS011;70113;59.928;10.878;2023-10-08T10:55:13;0.52;;;0.20;;
80725;SDS011;70113;59.928;10.878;2023-10-08T10:57:43;0.57;;;0.20;;
80725;SDS011;70113;59.928;10.878;2023-10-08T11:00:28;0.68;;;0.20;;
80725;SDS011;70113;59.928;10.878;2023-10-08T11:02:57;0.70;;;0.30;;
80725;SDS011;70113;59.928;10.878;2023-10-08T11:05:41;0.43;;;0.20;;
80725;SDS011;70113;59.928;10.878;2023-10-08T11:08:14;0.30;;;0.10;;
80725;SDS011;70113;59.928;10.878;2023-10-08T11:10:43;0.95;;;0.15;;
80725;SDS011;70113;59.928;10.878;2023-10-08T11:13:25;1.05;;;0.60;;
80725;SDS011;70113;59.928;10.878;2023-10-08T11:16:03;1.30;;;0.22;;
80725;SDS011;70113;59.928;10.878;2023-10-08T11:18:29;0.50;;;0.20;;
80725;SDS011;70113;59.928;10.878;2023-10-08T11:21:04;1.17;;;0.40;;
80725;SDS011;70113;59.928;10.878;2023-10-08T11:23:43;0.20;;;0.10;;
80725;SDS011;70113;59.928;10.878;2023-10-08T11:26:09;0.55;;;0.20;;
80725;SDS011;70113;59.928;10.878;2023-10-08T11:28:36;0.25;;;0.20;;
80725;SDS011;70113;59.928;10.878;2023-10-08T11:31:07;0.95;;;0.20;;
80725;SDS011;70113;59.928;10.878;2023-10-08T11:33:42;0.30;;;0.10;;
80725;SDS011;70113;59.928;10.878;2023-10-08T11:36:22;1.23;;;0.20;;
80725;SDS011;70113;59.928;10.878;2023-10-08T11:38:55;0.22;;;0.20;;
80725;SDS011;70113;59.928;10.878;2023-10-08T11:41:26;1.77;;;0.38;;
80725;SDS011;70113;59.928;10.878;2023-10-08T11:43:54;0.15;;;0.13;;
80725;SDS011;70113;59.928;10.878;2023-10-08T11:46:27;0.65;;;0.30;;
80725;SDS011;70113;59.928;10.878;2023-10-08T11:49:07;1.50;;;0.40;;
80725;SDS011;70113;59.928;10.878;2023-10-08T11:51:43;2.30;;;0.57;;
80725;SDS011;70113;59.928;10.878;2023-10-08T11:54:09;1.05;;;0.30;;
80725;SDS011;70113;59.928;10.878;2023-10-08T11:56:39;0.98;;;0.28;;
80725;SDS011;70113;59.928;10.878;2023-10-08T11:59:05;0.73;;;0.30;;
80725;SDS011;70113;59.928;10.878;2023-10-08T12:01:34;1.33;;;0.30;;
80725;SDS011;70113;59.928;10.878;2023-10-08T12:04:08;0.20;;;0.10;;
80725;SDS011;70113;59.928;10.878;2023-10-08T12:06:43;1.38;;;0.30;;
80725;SDS011;70113;59.928;10.878;2023-10-08T12:09:15;0.45;;;0.20;;
80725;SDS011;70113;59.928;10.878;2023-10-08T12:11:41;0.80;;;0.20;;
80725;SDS011;70113;59.928;10.878;2023-10-08T12:14:08;0.63;;;0.20;;
80725;SDS011;70113;59.928;10.878;2023-10-08T12:16:35;0.85;;;0.20;;
80725;SDS011;70113;59.928;10.878;2023-10-08T12:19:01;0.40;;;0.30;;
80725;SDS011;70113;59.928;10.878;2023-10-08T12:21:31;0.75;;;0.25;;
80725;SDS011;70113;59.928;10.878;2023-10-08T12:23:57;0.63;;;0.30;;
80725;SDS011;70113;59.928;10.878;2023-10-08T12:26:24;0.57;;;0.10;;
80725;SDS011;70113;59.928;10.878;2023-10-08T12:28:51;1.23;;;0.30;;
80725;SDS011;70113;59.928;10.878;2023-10-08T12:31:19;1.15;;;0.30;;
80725;SDS011;70113;59.928;10.878;2023-10-08T12:33:48;0.63;;;0.20;;
80725;SDS011;70113;59.928;10.878;2023-10-08T12:36:16;0.88;;;0.20;;
80725;SDS011;70113;59.928;10.878;2023-10-08T12:38:43;0.38;;;0.20;;
80725;SDS011;70113;59.928;10.878;2023-10-08T12:41:12;0.40;;;0.20;;
80725;SDS011;70113;59.928;10.878;2023-10-08T12:43:44;0.90;;;0.20;;
80725;SDS011;70113;59.928;10.878;2023-10-08T12:46:14;0.77;;;0.20;;
80725;SDS011;70113;59.928;10.878;2023-10-08T12:48:49;0.85;;;0.20;;
80725;SDS011;70113;59.928;10.878;2023-10-08T12:51:20;1.02;;;0.20;;
80725;SDS011;70113;59.928;10.878;2023-10-08T12:53:51;1.05;;;0.30;;
80725;SDS011;70113;59.928;10.878;2023-10-08T12:56:24;1.38;;;0.35;;
80725;SDS011;70113;59.928;10.878;2023-10-08T12:58:58;0.73;;;0.20;;
80725;SDS011;70113;59.928;10.878;2023-10-08T13:01:24;0.63;;;0.20;;
80725;SDS011;70113;59.928;10.878;2023-10-08T13:03:54;0.20;;;0.20;;
80725;SDS011;70113;59.928;10.878;2023-10-08T13:06:25;0.80;;;0.20;;
80725;SDS011;70113;59.928;10.878;2023-10-08T13:08:55;1.27;;;0.30;;
80725;SDS011;70113;59.928;10.878;2023-10-08T13:11:22;0.77;;;0.30;;
80725;SDS011;70113;59.928;10.878;2023-10-08T13:13:49;0.88;;;0.20;;
80725;SDS011;70113;59.928;10.878;2023-10-08T13:19:10;1.05;;;0.20;;
80725;SDS011;70113;59.928;10.878;2023-10-08T13:21:36;0.65;;;0.30;;
80725;SDS011;70113;59.928;10.878;2023-10-08T13:24:02;2.13;;;0.70;;
80725;SDS011;70113;59.928;10.878;2023-10-08T13:26:30;2.50;;;0.88;;
80725;SDS011;70113;59.928;10.878;2023-10-08T13:28:57;1.95;;;0.45;;
80725;SDS011;70113;59.928;10.878;2023-10-08T13:31:26;1.27;;;0.40;;
80725;SDS011;70113;59.928;10.878;2023-10-08T13:33:55;1.63;;;0.40;;
80725;SDS011;70113;59.928;10.878;2023-10-08T13:36:28;1.15;;;0.40;;
80725;SDS011;70113;59.928;10.878;2023-10-08T13:38:54;3.13;;;0.65;;
80725;SDS011;70113;59.928;10.878;2023-10-08T13:41:20;1.27;;;0.45;;
80725;SDS011;70113;59.928;10.878;2023-10-08T13:43:49;2.67;;;0.82;;
80725;SDS011;70113;59.928;10.878;2023-10-08T13:46:19;2.28;;;0.80;;
80725;SDS011;70113;59.928;10.878;2023-10-08T13:48:48;1.83;;;0.50;;
80725;SDS011;70113;59.928;10.878;2023-10-08T13:51:15;2.95;;;0.50;;
80725;SDS011;70113;59.928;10.878;2023-10-08T13:53:49;1.75;;;0.40;;
80725;SDS011;70113;59.928;10.878;2023-10-08T13:56:24;2.47;;;0.65;;
80725;SDS011;70113;59.928;10.878;2023-10-08T13:58:52;2.35;;;0.68;;
80725;SDS011;70113;59.928;10.878;2023-10-08T14:01:28;3.78;;;0.88;;
80725;SDS011;70113;59.928;10.878;2023-10-08T14:03:55;3.58;;;0.70;;
80725;SDS011;70113;59.928;10.878;2023-10-08T14:06:29;3.70;;;0.90;;
80725;SDS011;70113;59.928;10.878;2023-10-08T14:08:57;2.85;;;0.52;;
80725;SDS011;70113;59.928;10.878;2023-10-08T14:11:22;1.40;;;0.40;;
80725;SDS011;70113;59.928;10.878;2023-10-08T14:13:55;2.08;;;0.50;;
80725;SDS011;70113;59.928;10.878;2023-10-08T14:16:22;2.00;;;0.60;;
80725;SDS011;70113;59.928;10.878;2023-10-08T14:18:54;1.52;;;0.45;;
80725;SDS011;70113;59.928;10.878;2023-10-08T14:21:21;1.23;;;0.40;;
80725;SDS011;70113;59.928;10.878;2023-10-08T14:23:52;1.08;;;0.30;;
80725;SDS011;70113;59.928;10.878;2023-10-08T14:26:18;2.55;;;0.70;;
80725;SDS011;70113;59.928;10.878;2023-10-08T14:28:47;2.45;;;0.90;;
80725;SDS011;70113;59.928;10.878;2023-10-08T14:31:23;2.50;;;0.52;;
80725;SDS011;70113;59.928;10.878;2023-10-08T14:33:52;0.95;;;0.20;;
80725;SDS011;70113;59.928;10.878;2023-10-08T14:36:24;0.95;;;0.30;;
80725;SDS011;70113;59.928;10.878;2023-10-08T14:39:09;4.15;;;1.00;;
80725;SDS011;70113;59.928;10.878;2023-10-08T14:41:54;1.40;;;0.30;;
80725;SDS011;70113;59.928;10.878;2023-10-08T14:44:38;1.42;;;0.30;;
80725;SDS011;70113;59.928;10.878;2023-10-08T14:47:04;1.77;;;0.47;;
80725;SDS011;70113;59.928;10.878;2023-10-08T14:49:31;1.23;;;0.52;;
80725;SDS011;70113;59.928;10.878;2023-10-08T14:51:57;2.53;;;0.88;;
80725;SDS011;70113;59.928;10.878;2023-10-08T14:54:24;0.98;;;0.40;;
80725;SDS011;70113;59.928;10.878;2023-10-08T14:56:49;0.50;;;0.22;;
80725;SDS011;70113;59.928;10.878;2023-10-08T14:59:16;1.52;;;0.47;;
80725;SDS011;70113;59.928;10.878;2023-10-08T15:01:43;1.58;;;0.30;;
80725;SDS011;70113;59.928;10.878;2023-10-08T15:04:10;0.70;;;0.30;;
80725;SDS011;70113;59.928;10.878;2023-10-08T15:06:36;0.30;;;0.17;;
80725;SDS011;70113;59.928;10.878;2023-10-08T15:09:04;1.10;;;0.30;;
80725;SDS011;70113;59.928;10.878;2023-10-08T15:11:33;0.82;;;0.30;;
80725;SDS011;70113;59.928;10.878;2023-10-08T15:14:04;2.05;;;0.40;;
80725;SDS011;70113;59.928;10.878;2023-10-08T15:16:35;2.30;;;0.40;;
80725;SDS011;70113;59.928;10.878;2023-10-08T15:19:02;0.63;;;0.30;;
80725;SDS011;70113;59.928;10.878;2023-10-08T15:21:29;1.00;;;0.35;;
80725;SDS011;70113;59.928;10.878;2023-10-08T15:24:01;0.73;;;0.30;;
80725;SDS011;70113;59.928;10.878;2023-10-08T15:26:31;0.40;;;0.20;;
80725;SDS011;70113;59.928;10.878;2023-10-08T15:28:58;0.65;;;0.30;;
80725;SDS011;70113;59.928;10.878;2023-10-08T15:31:23;1.02;;;0.40;;
80725;SDS011;70113;59.928;10.878;2023-10-08T15:33:50;2.35;;;0.50;;
80725;SDS011;70113;59.928;10.878;2023-10-08T15:36:16;4.78;;;1.80;;
80725;SDS011;70113;59.928;10.878;2023-10-08T15:38:42;2.78;;;1.00;;
80725;SDS011;70113;59.928;10.878;2023-10-08T15:41:07;1.63;;;0.47;;
80725;SDS011;70113;59.928;10.878;2023-10-08T15:44:02;1.35;;;0.45;;
80725;SDS011;70113;59.928;10.878;2023-10-08T15:46:28;1.40;;;0.30;;
80725;SDS011;70113;59.928;10.878;2023-10-08T15:48:54;1.70;;;0.43;;
80725;SDS011;70113;59.928;10.878;2023-10-08T15:51:20;1.33;;;0.50;;
80725;SDS011;70113;59.928;10.878;2023-10-08T15:53:46;1.80;;;0.50;;
80725;SDS011;70113;59.928;10.878;2023-10-08T15:56:12;0.88;;;0.40;;